sensor_id;sensor_type;location;lat;lon;timestamp;P1;durP1;ratioP1;P2;durP2;ratioP2
52888;SDS011;41413;52.770;6.892;2022-12-07T00:01:39;5.90;;;2.90;;
52888;SDS011;41413;52.770;6.892;2022-12-07T00:04:08;6.30;;;2.83;;
52888;SDS011;41413;52.770;6.892;2022-12-07T00:06:38;4.70;;;2.70;;
52888;SDS011;41413;52.770;6.892;2022-12-07T00:09:07;6.00;;;2.25;;
52888;SDS011;41413;52.770;6.892;2022-12-07T00:11:37;4.25;;;3.20;;
52888;SDS011;41413;52.770;6.892;2022-12-07T00:14:05;8.27;;;3.17;;
52888;SDS011;41413;52.770;6.892;2022-12-07T00:16:36;8.18;;;3.00;;
52888;SDS011;41413;52.770;6.892;2022-12-07T00:19:03;9.05;;;3.05;;
52888;SDS011;41413;52.770;6.892;2022-12-07T00:21:31;8.55;;;2.78;;
52888;SDS011;41413;52.770;6.892;2022-12-07T00:23:59;6.75;;;2.90;;
52888;SDS011;41413;52.770;6.892;2022-12-07T00:26:27;6.80;;;2.45;;
52888;SDS011;41413;52.770;6.892;2022-12-07T00:28:57;5.95;;;2.60;;
52888;SDS011;41413;52.770;6.892;2022-12-07T00:31:27;4.97;;;2.42;;
52888;SDS011;41413;52.770;6.892;2022-12-07T00:33:55;5.30;;;3.25;;
52888;SDS011;41413;52.770;6.892;2022-12-07T00:36:23;7.80;;;3.85;;
52888;SDS011;41413;52.770;6.892;2022-12-07T00:38:53;9.18;;;3.33;;
52888;SDS011;41413;52.770;6.892;2022-12-07T00:41:21;4.57;;;3.28;;
52888;SDS011;41413;52.770;6.892;2022-12-07T00:43:50;10.27;;;3.30;;
52888;SDS011;41413;52.770;6.892;2022-12-07T00:46:17;8.15;;;3.22;;
52888;SDS011;41413;52.770;6.892;2022-12-07T00:48:45;6.30;;;2.67;;
52888;SDS011;41413;52.770;6.892;2022-12-07T00:51:13;5.93;;;2.63;;
52888;SDS011;41413;52.770;6.892;2022-12-07T00:53:41;9.65;;;2.97;;
52888;SDS011;41413;52.770;6.892;2022-12-07T00:56:08;10.02;;;2.55;;
52888;SDS011;41413;52.770;6.892;2022-12-07T00:58:39;7.32;;;2.10;;
52888;SDS011;41413;52.770;6.892;2022-12-07T01:01:07;5.05;;;2.63;;
52888;SDS011;41413;52.770;6.892;2022-12-07T01:03:35;6.80;;;2.70;;
52888;SDS011;41413;52.770;6.892;2022-12-07T01:06:02;10.25;;;2.42;;
52888;SDS011;41413;52.770;6.892;2022-12-07T01:08:29;8.13;;;2.78;;
52888;SDS011;41413;52.770;6.892;2022-12-07T01:13:30;8.05;;;2.65;;
52888;SDS011;41413;52.770;6.892;2022-12-07T01:15:58;5.90;;;2.53;;
52888;SDS011;41413;52.770;6.892;2022-12-07T01:18:27;6.47;;;3.25;;
52888;SDS011;41413;52.770;6.892;2022-12-07T01:20:58;4.70;;;2.90;;
52888;SDS011;41413;52.770;6.892;2022-12-07T01:23:25;11.20;;;2.40;;
52888;SDS011;41413;52.770;6.892;2022-12-07T01:25:58;4.30;;;2.72;;
52888;SDS011;41413;52.770;6.892;2022-12-07T01:28:26;7.40;;;2.60;;
52888;SDS011;41413;52.770;6.892;2022-12-07T01:31:15;5.47;;;2.63;;
52888;SDS011;41413;52.770;6.892;2022-12-07T01:33:46;11.50;;;3.47;;
52888;SDS011;41413;52.770;6.892;2022-12-07T01:36:16;5.78;;;3.00;;
52888;SDS011;41413;52.770;6.892;2022-12-07T01:38:52;11.40;;;3.25;;
52888;SDS011;41413;52.770;6.892;2022-12-07T01:41:23;4.05;;;2.42;;
52888;SDS011;41413;52.770;6.892;2022-12-07T01:44:08;8.07;;;2.85;;
52888;SDS011;41413;52.770;6.892;2022-12-07T01:46:35;6.18;;;3.03;;
52888;SDS011;41413;52.770;6.892;2022-12-07T01:49:03;5.30;;;2.63;;
52888;SDS011;41413;52.770;6.892;2022-12-07T01:51:34;11.68;;;3.08;;
52888;SDS011;41413;52.770;6.892;2022-12-07T01:54:03;6.07;;;2.75;;
52888;SDS011;41413;52.770;6.892;2022-12-07T01:56:30;7.72;;;2.83;;
52888;SDS011;41413;52.770;6.892;2022-12-07T01:58:58;8.38;;;2.45;;
52888;SDS011;41413;52.770;6.892;2022-12-07T02:01:26;5.65;;;2.58;;
52888;SDS011;41413;52.770;6.892;2022-12-07T02:03:53;5.38;;;3.58;;
52888;SDS011;41413;52.770;6.892;2022-12-07T02:06:21;8.63;;;3.35;;
52888;SDS011;41413;52.770;6.892;2022-12-07T02:08:50;7.80;;;2.85;;
52888;SDS011;41413;52.770;6.892;2022-12-07T02:11:17;7.22;;;2.55;;
52888;SDS011;41413;52.770;6.892;2022-12-07T02:13:44;11.18;;;2.92;;
52888;SDS011;41413;52.770;6.892;2022-12-07T02:24:37;6.32;;;2.72;;
52888;SDS011;41413;52.770;6.892;2022-12-07T02:30:09;7.82;;;2.60;;
52888;SDS011;41413;52.770;6.892;2022-12-07T02:40:57;3.17;;;2.03;;
52888;SDS011;41413;52.770;6.892;2022-12-07T02:43:43;4.57;;;2.60;;
52888;SDS011;41413;52.770;6.892;2022-12-07T02:46:15;7.03;;;3.13;;
52888;SDS011;41413;52.770;6.892;2022-12-07T02:52:01;4.65;;;1.60;;
52888;SDS011;41413;52.770;6.892;2022-12-07T02:54:28;3.70;;;1.77;;
52888;SDS011;41413;52.770;6.892;2022-12-07T03:04:54;4.80;;;1.80;;
52888;SDS011;41413;52.770;6.892;2022-12-07T03:07:48;5.70;;;2.08;;
52888;SDS011;41413;52.770;6.892;2022-12-07T03:18:26;9.77;;;2.38;;
52888;SDS011;41413;52.770;6.892;2022-12-07T03:20:57;6.20;;;2.58;;
52888;SDS011;41413;52.770;6.892;2022-12-07T03:23:28;7.43;;;2.10;;
52888;SDS011;41413;52.770;6.892;2022-12-07T03:26:01;11.75;;;2.85;;
52888;SDS011;41413;52.770;6.892;2022-12-07T03:28:35;4.97;;;2.88;;
52888;SDS011;41413;52.770;6.892;2022-12-07T03:36:53;8.85;;;3.50;;
52888;SDS011;41413;52.770;6.892;2022-12-07T03:39:35;10.15;;;3.20;;
52888;SDS011;41413;52.770;6.892;2022-12-07T03:42:12;6.45;;;3.35;;
52888;SDS011;41413;52.770;6.892;2022-12-07T03:44:39;4.65;;;2.47;;
52888;SDS011;41413;52.770;6.892;2022-12-07T03:47:12;6.55;;;2.67;;
52888;SDS011;41413;52.770;6.892;2022-12-07T03:55:08;5.03;;;2.45;;
52888;SDS011;41413;52.770;6.892;2022-12-07T03:57:44;7.93;;;2.78;;
52888;SDS011;41413;52.770;6.892;2022-12-07T04:00:14;7.32;;;2.70;;
52888;SDS011;41413;52.770;6.892;2022-12-07T04:02:41;7.15;;;3.55;;
52888;SDS011;41413;52.770;6.892;2022-12-07T04:05:09;9.75;;;3.22;;
52888;SDS011;41413;52.770;6.892;2022-12-07T04:07:36;8.30;;;2.63;;
52888;SDS011;41413;52.770;6.892;2022-12-07T04:10:03;5.68;;;2.25;;
52888;SDS011;41413;52.770;6.892;2022-12-07T04:12:31;8.23;;;2.97;;
52888;SDS011;41413;52.770;6.892;2022-12-07T04:14:57;7.13;;;2.97;;
52888;SDS011;41413;52.770;6.892;2022-12-07T04:17:24;8.15;;;2.40;;
52888;SDS011;41413;52.770;6.892;2022-12-07T04:19:51;4.10;;;2.67;;
52888;SDS011;41413;52.770;6.892;2022-12-07T04:22:17;3.80;;;2.55;;
52888;SDS011;41413;52.770;6.892;2022-12-07T04:24:44;6.68;;;2.65;;
52888;SDS011;41413;52.770;6.892;2022-12-07T04:27:11;9.52;;;2.10;;
52888;SDS011;41413;52.770;6.892;2022-12-07T04:29:37;8.15;;;3.50;;
52888;SDS011;41413;52.770;6.892;2022-12-07T04:32:04;12.88;;;2.28;;
52888;SDS011;41413;52.770;6.892;2022-12-07T04:34:31;3.75;;;1.67;;
52888;SDS011;41413;52.770;6.892;2022-12-07T04:36:58;7.35;;;2.30;;
52888;SDS011;41413;52.770;6.892;2022-12-07T04:39:26;6.45;;;2.60;;
52888;SDS011;41413;52.770;6.892;2022-12-07T04:41:55;9.27;;;2.95;;
52888;SDS011;41413;52.770;6.892;2022-12-07T04:44:23;5.13;;;2.17;;
52888;SDS011;41413;52.770;6.892;2022-12-07T04:46:51;6.32;;;2.50;;
52888;SDS011;41413;52.770;6.892;2022-12-07T04:49:18;3.90;;;2.13;;
52888;SDS011;41413;52.770;6.892;2022-12-07T04:51:46;6.88;;;2.47;;
52888;SDS011;41413;52.770;6.892;2022-12-07T04:54:13;5.97;;;2.25;;
52888;SDS011;41413;52.770;6.892;2022-12-07T04:56:40;6.53;;;2.85;;
52888;SDS011;41413;52.770;6.892;2022-12-07T04:59:08;8.32;;;3.00;;
52888;SDS011;41413;52.770;6.892;2022-12-07T05:01:36;7.43;;;2.58;;
52888;SDS011;41413;52.770;6.892;2022-12-07T05:04:03;7.95;;;3.30;;
52888;SDS011;41413;52.770;6.892;2022-12-07T05:06:30;5.13;;;2.00;;
52888;SDS011;41413;52.770;6.892;2022-12-07T05:08:56;5.47;;;2.60;;
52888;SDS011;41413;52.770;6.892;2022-12-07T05:11:23;9.63;;;2.45;;
52888;SDS011;41413;52.770;6.892;2022-12-07T05:14:07;5.60;;;3.13;;
52888;SDS011;41413;52.770;6.892;2022-12-07T05:16:36;3.10;;;2.10;;
52888;SDS011;41413;52.770;6.892;2022-12-07T05:19:03;12.52;;;3.45;;
52888;SDS011;41413;52.770;6.892;2022-12-07T05:21:31;6.43;;;3.00;;
52888;SDS011;41413;52.770;6.892;2022-12-07T05:23:58;6.80;;;2.92;;
52888;SDS011;41413;52.770;6.892;2022-12-07T05:26:25;5.88;;;2.75;;
52888;SDS011;41413;52.770;6.892;2022-12-07T05:28:53;8.85;;;2.78;;
52888;SDS011;41413;52.770;6.892;2022-12-07T05:31:21;8.60;;;2.97;;
52888;SDS011;41413;52.770;6.892;2022-12-07T05:33:49;5.22;;;2.10;;
52888;SDS011;41413;52.770;6.892;2022-12-07T05:36:16;3.97;;;2.63;;
52888;SDS011;41413;52.770;6.892;2022-12-07T05:38:43;7.97;;;2.45;;
52888;SDS011;41413;52.770;6.892;2022-12-07T05:41:12;8.25;;;3.25;;
52888;SDS011;41413;52.770;6.892;2022-12-07T05:44:00;5.40;;;2.83;;
52888;SDS011;41413;52.770;6.892;2022-12-07T05:46:26;9.13;;;2.78;;
52888;SDS011;41413;52.770;6.892;2022-12-07T05:48:53;8.95;;;3.53;;
52888;SDS011;41413;52.770;6.892;2022-12-07T05:51:20;9.48;;;3.38;;
52888;SDS011;41413;52.770;6.892;2022-12-07T05:53:47;14.45;;;3.75;;
52888;SDS011;41413;52.770;6.892;2022-12-07T05:56:13;7.57;;;2.67;;
52888;SDS011;41413;52.770;6.892;2022-12-07T05:58:40;11.88;;;3.25;;
52888;SDS011;41413;52.770;6.892;2022-12-07T06:01:26;4.15;;;2.72;;
52888;SDS011;41413;52.770;6.892;2022-12-07T06:03:53;7.63;;;2.63;;
52888;SDS011;41413;52.770;6.892;2022-12-07T06:06:19;8.43;;;2.35;;
52888;SDS011;41413;52.770;6.892;2022-12-07T06:08:46;10.50;;;2.78;;
52888;SDS011;41413;52.770;6.892;2022-12-07T06:11:13;3.47;;;1.60;;
52888;SDS011;41413;52.770;6.892;2022-12-07T06:13:58;12.85;;;3.53;;
52888;SDS011;41413;52.770;6.892;2022-12-07T06:16:25;6.07;;;2.70;;
52888;SDS011;41413;52.770;6.892;2022-12-07T06:18:52;9.13;;;2.75;;
52888;SDS011;41413;52.770;6.892;2022-12-07T06:21:18;5.28;;;1.95;;
52888;SDS011;41413;52.770;6.892;2022-12-07T06:23:45;9.73;;;2.75;;
52888;SDS011;41413;52.770;6.892;2022-12-07T06:26:13;4.45;;;2.35;;
52888;SDS011;41413;52.770;6.892;2022-12-07T06:28:40;7.18;;;3.83;;
52888;SDS011;41413;52.770;6.892;2022-12-07T06:31:07;7.03;;;2.78;;
52888;SDS011;41413;52.770;6.892;2022-12-07T06:33:39;11.02;;;3.05;;
52888;SDS011;41413;52.770;6.892;2022-12-07T06:36:05;7.97;;;2.15;;
52888;SDS011;41413;52.770;6.892;2022-12-07T06:38:32;7.88;;;2.97;;
52888;SDS011;41413;52.770;6.892;2022-12-07T06:40:59;4.15;;;2.30;;
52888;SDS011;41413;52.770;6.892;2022-12-07T06:43:26;6.13;;;2.53;;
52888;SDS011;41413;52.770;6.892;2022-12-07T06:45:53;7.05;;;2.60;;
52888;SDS011;41413;52.770;6.892;2022-12-07T06:48:20;8.25;;;3.92;;
52888;SDS011;41413;52.770;6.892;2022-12-07T06:50:47;5.00;;;2.15;;
52888;SDS011;41413;52.770;6.892;2022-12-07T06:53:20;5.70;;;2.45;;
52888;SDS011;41413;52.770;6.892;2022-12-07T06:55:47;4.55;;;2.50;;
52888;SDS011;41413;52.770;6.892;2022-12-07T06:58:14;10.05;;;2.58;;
52888;SDS011;41413;52.770;6.892;2022-12-07T07:00:40;5.28;;;2.72;;
52888;SDS011;41413;52.770;6.892;2022-12-07T07:03:07;12.75;;;2.65;;
52888;SDS011;41413;52.770;6.892;2022-12-07T07:05:34;8.23;;;2.90;;
52888;SDS011;41413;52.770;6.892;2022-12-07T07:08:01;4.50;;;2.50;;
52888;SDS011;41413;52.770;6.892;2022-12-07T07:10:49;8.38;;;3.20;;
52888;SDS011;41413;52.770;6.892;2022-12-07T07:13:16;4.60;;;2.67;;
52888;SDS011;41413;52.770;6.892;2022-12-07T07:15:42;11.80;;;3.55;;
52888;SDS011;41413;52.770;6.892;2022-12-07T07:18:09;7.22;;;3.10;;
52888;SDS011;41413;52.770;6.892;2022-12-07T07:20:36;4.78;;;2.42;;
52888;SDS011;41413;52.770;6.892;2022-12-07T07:23:03;7.25;;;3.17;;
52888;SDS011;41413;52.770;6.892;2022-12-07T07:25:31;5.55;;;3.47;;
52888;SDS011;41413;52.770;6.892;2022-12-07T07:27:58;7.90;;;3.15;;
52888;SDS011;41413;52.770;6.892;2022-12-07T07:30:25;5.40;;;2.20;;
52888;SDS011;41413;52.770;6.892;2022-12-07T07:32:55;9.65;;;2.80;;
52888;SDS011;41413;52.770;6.892;2022-12-07T07:35:23;5.25;;;2.63;;
52888;SDS011;41413;52.770;6.892;2022-12-07T07:37:50;9.07;;;2.28;;
52888;SDS011;41413;52.770;6.892;2022-12-07T07:40:17;7.78;;;2.60;;
52888;SDS011;41413;52.770;6.892;2022-12-07T07:42:46;7.43;;;2.55;;
52888;SDS011;41413;52.770;6.892;2022-12-07T07:45:14;8.95;;;2.55;;
52888;SDS011;41413;52.770;6.892;2022-12-07T07:47:41;4.15;;;1.98;;
52888;SDS011;41413;52.770;6.892;2022-12-07T07:50:08;6.80;;;2.00;;
52888;SDS011;41413;52.770;6.892;2022-12-07T07:52:35;8.27;;;2.78;;
52888;SDS011;41413;52.770;6.892;2022-12-07T07:55:02;4.40;;;1.98;;
52888;SDS011;41413;52.770;6.892;2022-12-07T07:57:29;8.00;;;2.67;;
52888;SDS011;41413;52.770;6.892;2022-12-07T07:59:56;6.05;;;3.08;;
52888;SDS011;41413;52.770;6.892;2022-12-07T08:02:23;10.02;;;5.15;;
52888;SDS011;41413;52.770;6.892;2022-12-07T08:04:49;7.60;;;4.47;;
52888;SDS011;41413;52.770;6.892;2022-12-07T08:07:16;6.32;;;3.67;;
52888;SDS011;41413;52.770;6.892;2022-12-07T08:09:43;8.27;;;2.88;;
52888;SDS011;41413;52.770;6.892;2022-12-07T08:12:10;3.75;;;1.88;;
52888;SDS011;41413;52.770;6.892;2022-12-07T08:14:36;4.47;;;2.08;;
52888;SDS011;41413;52.770;6.892;2022-12-07T08:17:03;4.40;;;2.60;;
52888;SDS011;41413;52.770;6.892;2022-12-07T08:19:30;4.53;;;2.30;;
52888;SDS011;41413;52.770;6.892;2022-12-07T08:21:57;11.98;;;2.85;;
52888;SDS011;41413;52.770;6.892;2022-12-07T08:24:23;7.85;;;3.42;;
52888;SDS011;41413;52.770;6.892;2022-12-07T08:26:51;7.15;;;3.05;;
52888;SDS011;41413;52.770;6.892;2022-12-07T08:29:18;6.20;;;3.17;;
52888;SDS011;41413;52.770;6.892;2022-12-07T08:31:45;4.60;;;2.95;;
52888;SDS011;41413;52.770;6.892;2022-12-07T08:34:12;5.78;;;2.90;;
52888;SDS011;41413;52.770;6.892;2022-12-07T08:36:41;9.57;;;3.08;;
52888;SDS011;41413;52.770;6.892;2022-12-07T08:39:07;4.72;;;2.60;;
52888;SDS011;41413;52.770;6.892;2022-12-07T08:41:54;6.53;;;3.70;;
52888;SDS011;41413;52.770;6.892;2022-12-07T08:44:21;15.00;;;6.60;;
52888;SDS011;41413;52.770;6.892;2022-12-07T08:46:49;9.75;;;5.65;;
52888;SDS011;41413;52.770;6.892;2022-12-07T08:49:23;9.57;;;3.60;;
52888;SDS011;41413;52.770;6.892;2022-12-07T08:51:56;4.80;;;2.43;;
52888;SDS011;41413;52.770;6.892;2022-12-07T08:54:23;5.97;;;2.67;;
52888;SDS011;41413;52.770;6.892;2022-12-07T08:56:51;6.20;;;2.75;;
52888;SDS011;41413;52.770;6.892;2022-12-07T08:59:25;7.68;;;2.75;;
52888;SDS011;41413;52.770;6.892;2022-12-07T09:01:53;5.70;;;2.25;;
52888;SDS011;41413;52.770;6.892;2022-12-07T09:04:19;5.75;;;2.72;;
52888;SDS011;41413;52.770;6.892;2022-12-07T09:06:46;5.32;;;2.97;;
52888;SDS011;41413;52.770;6.892;2022-12-07T09:09:13;7.38;;;2.83;;
52888;SDS011;41413;52.770;6.892;2022-12-07T09:11:40;5.93;;;2.58;;
52888;SDS011;41413;52.770;6.892;2022-12-07T09:14:08;5.93;;;3.05;;
52888;SDS011;41413;52.770;6.892;2022-12-07T09:16:34;14.07;;;4.57;;
52888;SDS011;41413;52.770;6.892;2022-12-07T09:19:01;22.10;;;9.95;;
52888;SDS011;41413;52.770;6.892;2022-12-07T09:21:28;16.40;;;8.25;;
52888;SDS011;41413;52.770;6.892;2022-12-07T09:23:55;13.13;;;6.45;;
52888;SDS011;41413;52.770;6.892;2022-12-07T09:26:22;11.50;;;8.23;;
52888;SDS011;41413;52.770;6.892;2022-12-07T09:28:49;13.25;;;6.40;;
52888;SDS011;41413;52.770;6.892;2022-12-07T09:31:15;11.82;;;6.30;;
52888;SDS011;41413;52.770;6.892;2022-12-07T09:36:21;6.88;;;4.90;;
52888;SDS011;41413;52.770;6.892;2022-12-07T09:38:48;11.55;;;6.07;;
52888;SDS011;41413;52.770;6.892;2022-12-07T09:41:15;9.43;;;6.05;;
52888;SDS011;41413;52.770;6.892;2022-12-07T09:43:42;8.23;;;5.13;;
52888;SDS011;41413;52.770;6.892;2022-12-07T09:46:10;10.15;;;3.88;;
52888;SDS011;41413;52.770;6.892;2022-12-07T09:48:41;5.38;;;4.05;;
52888;SDS011;41413;52.770;6.892;2022-12-07T09:51:17;9.02;;;3.28;;
52888;SDS011;41413;52.770;6.892;2022-12-07T09:53:50;8.00;;;2.65;;
52888;SDS011;41413;52.770;6.892;2022-12-07T09:56:21;5.82;;;2.38;;
52888;SDS011;41413;52.770;6.892;2022-12-07T09:58:58;7.03;;;3.00;;
52888;SDS011;41413;52.770;6.892;2022-12-07T10:01:28;5.78;;;2.65;;
52888;SDS011;41413;52.770;6.892;2022-12-07T10:04:09;7.68;;;3.70;;
52888;SDS011;41413;52.770;6.892;2022-12-07T10:06:44;6.18;;;2.67;;
52888;SDS011;41413;52.770;6.892;2022-12-07T10:09:12;8.48;;;3.17;;
52888;SDS011;41413;52.770;6.892;2022-12-07T10:14:27;7.00;;;3.30;;
52888;SDS011;41413;52.770;6.892;2022-12-07T10:17:27;7.05;;;2.92;;
52888;SDS011;41413;52.770;6.892;2022-12-07T10:22:55;7.25;;;2.75;;
52888;SDS011;41413;52.770;6.892;2022-12-07T10:25:28;5.60;;;2.83;;
52888;SDS011;41413;52.770;6.892;2022-12-07T10:28:02;5.53;;;2.58;;
52888;SDS011;41413;52.770;6.892;2022-12-07T10:36:35;6.10;;;2.97;;
52888;SDS011;41413;52.770;6.892;2022-12-07T10:39:25;4.70;;;2.88;;
52888;SDS011;41413;52.770;6.892;2022-12-07T10:41:57;5.97;;;2.95;;
52888;SDS011;41413;52.770;6.892;2022-12-07T10:44:28;9.05;;;3.58;;
52888;SDS011;41413;52.770;6.892;2022-12-07T10:49:45;7.90;;;3.08;;
52888;SDS011;41413;52.770;6.892;2022-12-07T10:55:23;9.32;;;3.08;;
52888;SDS011;41413;52.770;6.892;2022-12-07T11:01:12;8.13;;;2.80;;
52888;SDS011;41413;52.770;6.892;2022-12-07T11:07:23;6.10;;;2.80;;
52888;SDS011;41413;52.770;6.892;2022-12-07T11:12:48;10.65;;;3.38;;
52888;SDS011;41413;52.770;6.892;2022-12-07T11:32:25;12.15;;;3.72;;
52888;SDS011;41413;52.770;6.892;2022-12-07T11:35:43;5.72;;;2.60;;
52888;SDS011;41413;52.770;6.892;2022-12-07T11:37:47;7.00;;;2.50;;
52888;SDS011;41413;52.770;6.892;2022-12-07T11:40:20;8.32;;;2.45;;
52888;SDS011;41413;52.770;6.892;2022-12-07T11:45:33;4.72;;;2.28;;
52888;SDS011;41413;52.770;6.892;2022-12-07T11:48:04;5.80;;;2.30;;
52888;SDS011;41413;52.770;6.892;2022-12-07T11:50:45;8.20;;;2.15;;
52888;SDS011;41413;52.770;6.892;2022-12-07T12:05:05;5.45;;;3.50;;
52888;SDS011;41413;52.770;6.892;2022-12-07T12:07:35;8.45;;;3.28;;
52888;SDS011;41413;52.770;6.892;2022-12-07T12:10:38;11.75;;;7.50;;
52888;SDS011;41413;52.770;6.892;2022-12-07T12:13:19;6.55;;;3.20;;
52888;SDS011;41413;52.770;6.892;2022-12-07T12:19:33;5.05;;;2.28;;
52888;SDS011;41413;52.770;6.892;2022-12-07T12:22:08;10.90;;;2.72;;
52888;SDS011;41413;52.770;6.892;2022-12-07T12:24:39;5.68;;;2.67;;
52888;SDS011;41413;52.770;6.892;2022-12-07T12:27:09;9.80;;;3.90;;
52888;SDS011;41413;52.770;6.892;2022-12-07T12:29:45;7.60;;;3.45;;
52888;SDS011;41413;52.770;6.892;2022-12-07T12:32:20;5.95;;;2.58;;
52888;SDS011;41413;52.770;6.892;2022-12-07T12:40:42;6.32;;;3.78;;
52888;SDS011;41413;52.770;6.892;2022-12-07T12:54:20;7.65;;;3.13;;
52888;SDS011;41413;52.770;6.892;2022-12-07T13:02:21;8.25;;;2.88;;
52888;SDS011;41413;52.770;6.892;2022-12-07T13:15:37;6.35;;;2.72;;
52888;SDS011;41413;52.770;6.892;2022-12-07T13:23:52;7.78;;;3.30;;
52888;SDS011;41413;52.770;6.892;2022-12-07T13:37:01;7.60;;;2.60;;
52888;SDS011;41413;52.770;6.892;2022-12-07T13:39:34;8.15;;;3.25;;
52888;SDS011;41413;52.770;6.892;2022-12-07T13:42:15;5.07;;;2.70;;
52888;SDS011;41413;52.770;6.892;2022-12-07T13:44:55;5.13;;;2.43;;
52888;SDS011;41413;52.770;6.892;2022-12-07T13:47:44;7.75;;;2.60;;
52888;SDS011;41413;52.770;6.892;2022-12-07T13:52:54;11.27;;;2.63;;
52888;SDS011;41413;52.770;6.892;2022-12-07T13:55:23;6.63;;;2.97;;
52888;SDS011;41413;52.770;6.892;2022-12-07T13:57:51;5.05;;;1.88;;
52888;SDS011;41413;52.770;6.892;2022-12-07T14:00:28;3.88;;;2.15;;
52888;SDS011;41413;52.770;6.892;2022-12-07T14:03:41;8.90;;;2.05;;
52888;SDS011;41413;52.770;6.892;2022-12-07T14:05:43;5.90;;;2.13;;
52888;SDS011;41413;52.770;6.892;2022-12-07T14:10:41;4.63;;;1.55;;
52888;SDS011;41413;52.770;6.892;2022-12-07T14:16:19;4.30;;;2.10;;
52888;SDS011;41413;52.770;6.892;2022-12-07T14:18:56;4.85;;;1.73;;
52888;SDS011;41413;52.770;6.892;2022-12-07T14:21:26;3.75;;;1.77;;
52888;SDS011;41413;52.770;6.892;2022-12-07T14:26:47;2.60;;;1.38;;
52888;SDS011;41413;52.770;6.892;2022-12-07T14:31:51;3.15;;;1.65;;
52888;SDS011;41413;52.770;6.892;2022-12-07T14:34:22;4.40;;;1.38;;
52888;SDS011;41413;52.770;6.892;2022-12-07T14:36:49;3.10;;;1.80;;
52888;SDS011;41413;52.770;6.892;2022-12-07T14:39:16;3.45;;;1.88;;
52888;SDS011;41413;52.770;6.892;2022-12-07T14:41:43;6.82;;;2.58;;
52888;SDS011;41413;52.770;6.892;2022-12-07T14:46:50;4.45;;;1.60;;
52888;SDS011;41413;52.770;6.892;2022-12-07T14:49:37;4.72;;;1.85;;
52888;SDS011;41413;52.770;6.892;2022-12-07T14:52:04;2.28;;;1.65;;
52888;SDS011;41413;52.770;6.892;2022-12-07T14:54:56;4.78;;;2.05;;
52888;SDS011;41413;52.770;6.892;2022-12-07T14:57:24;4.53;;;2.30;;
52888;SDS011;41413;52.770;6.892;2022-12-07T14:59:51;5.97;;;1.45;;
52888;SDS011;41413;52.770;6.892;2022-12-07T15:02:17;4.50;;;2.05;;
52888;SDS011;41413;52.770;6.892;2022-12-07T15:04:44;5.10;;;2.33;;
52888;SDS011;41413;52.770;6.892;2022-12-07T15:07:16;5.30;;;2.45;;
52888;SDS011;41413;52.770;6.892;2022-12-07T15:09:46;4.13;;;3.72;;
52888;SDS011;41413;52.770;6.892;2022-12-07T15:12:13;6.57;;;3.35;;
52888;SDS011;41413;52.770;6.892;2022-12-07T15:14:41;4.57;;;2.22;;
52888;SDS011;41413;52.770;6.892;2022-12-07T15:17:09;4.20;;;2.70;;
52888;SDS011;41413;52.770;6.892;2022-12-07T15:19:53;6.20;;;2.47;;
52888;SDS011;41413;52.770;6.892;2022-12-07T15:22:19;7.85;;;2.00;;
52888;SDS011;41413;52.770;6.892;2022-12-07T15:24:46;6.00;;;3.10;;
52888;SDS011;41413;52.770;6.892;2022-12-07T15:27:13;4.25;;;2.75;;
52888;SDS011;41413;52.770;6.892;2022-12-07T15:29:39;3.97;;;2.88;;
52888;SDS011;41413;52.770;6.892;2022-12-07T15:32:06;4.15;;;2.30;;
52888;SDS011;41413;52.770;6.892;2022-12-07T15:34:33;4.22;;;2.63;;
52888;SDS011;41413;52.770;6.892;2022-12-07T15:37:05;6.18;;;3.70;;
52888;SDS011;41413;52.770;6.892;2022-12-07T15:39:32;4.85;;;3.28;;
52888;SDS011;41413;52.770;6.892;2022-12-07T15:41:59;6.85;;;3.35;;
52888;SDS011;41413;52.770;6.892;2022-12-07T15:44:26;3.78;;;2.50;;
52888;SDS011;41413;52.770;6.892;2022-12-07T15:47:11;5.20;;;3.23;;
52888;SDS011;41413;52.770;6.892;2022-12-07T15:49:38;5.25;;;2.95;;
52888;SDS011;41413;52.770;6.892;2022-12-07T15:52:05;9.93;;;4.75;;
52888;SDS011;41413;52.770;6.892;2022-12-07T15:54:32;10.68;;;4.03;;
52888;SDS011;41413;52.770;6.892;2022-12-07T15:56:59;9.40;;;7.43;;
52888;SDS011;41413;52.770;6.892;2022-12-07T15:59:27;6.55;;;5.07;;
52888;SDS011;41413;52.770;6.892;2022-12-07T16:01:54;9.48;;;3.40;;
52888;SDS011;41413;52.770;6.892;2022-12-07T16:04:21;17.30;;;12.75;;
52888;SDS011;41413;52.770;6.892;2022-12-07T16:06:48;21.88;;;14.88;;
52888;SDS011;41413;52.770;6.892;2022-12-07T16:09:17;33.38;;;20.50;;
52888;SDS011;41413;52.770;6.892;2022-12-07T16:11:44;6.97;;;5.97;;
52888;SDS011;41413;52.770;6.892;2022-12-07T16:14:11;14.82;;;10.85;;
52888;SDS011;41413;52.770;6.892;2022-12-07T16:16:37;11.60;;;7.15;;
52888;SDS011;41413;52.770;6.892;2022-12-07T16:19:06;15.38;;;7.82;;
52888;SDS011;41413;52.770;6.892;2022-12-07T16:21:34;34.63;;;23.27;;
52888;SDS011;41413;52.770;6.892;2022-12-07T16:24:01;14.77;;;11.52;;
52888;SDS011;41413;52.770;6.892;2022-12-07T16:26:28;9.30;;;6.13;;
52888;SDS011;41413;52.770;6.892;2022-12-07T16:28:55;9.68;;;4.43;;
52888;SDS011;41413;52.770;6.892;2022-12-07T16:31:23;9.77;;;6.53;;
52888;SDS011;41413;52.770;6.892;2022-12-07T16:33:53;8.07;;;7.28;;
52888;SDS011;41413;52.770;6.892;2022-12-07T16:36:22;10.52;;;4.20;;
52888;SDS011;41413;52.770;6.892;2022-12-07T16:39:11;6.18;;;4.28;;
52888;SDS011;41413;52.770;6.892;2022-12-07T16:41:37;8.13;;;6.00;;
52888;SDS011;41413;52.770;6.892;2022-12-07T16:44:05;5.72;;;4.32;;
52888;SDS011;41413;52.770;6.892;2022-12-07T16:46:33;7.88;;;5.63;;
52888;SDS011;41413;52.770;6.892;2022-12-07T16:49:02;5.82;;;4.85;;
52888;SDS011;41413;52.770;6.892;2022-12-07T16:51:29;7.50;;;4.55;;
52888;SDS011;41413;52.770;6.892;2022-12-07T16:53:56;7.45;;;4.78;;
52888;SDS011;41413;52.770;6.892;2022-12-07T16:56:23;11.30;;;8.93;;
52888;SDS011;41413;52.770;6.892;2022-12-07T16:58:52;13.05;;;6.25;;
52888;SDS011;41413;52.770;6.892;2022-12-07T17:01:20;8.73;;;6.07;;
52888;SDS011;41413;52.770;6.892;2022-12-07T17:03:50;3.83;;;3.30;;
52888;SDS011;41413;52.770;6.892;2022-12-07T17:06:21;8.20;;;4.35;;
52888;SDS011;41413;52.770;6.892;2022-12-07T17:08:50;7.68;;;3.15;;
52888;SDS011;41413;52.770;6.892;2022-12-07T17:11:21;4.65;;;4.10;;
52888;SDS011;41413;52.770;6.892;2022-12-07T17:13:52;8.25;;;3.50;;
52888;SDS011;41413;52.770;6.892;2022-12-07T17:16:38;5.10;;;2.45;;
52888;SDS011;41413;52.770;6.892;2022-12-07T17:19:06;2.80;;;1.70;;
52888;SDS011;41413;52.770;6.892;2022-12-07T17:21:35;5.15;;;2.80;;
52888;SDS011;41413;52.770;6.892;2022-12-07T17:24:03;2.75;;;2.42;;
52888;SDS011;41413;52.770;6.892;2022-12-07T17:26:31;4.10;;;2.10;;
52888;SDS011;41413;52.770;6.892;2022-12-07T17:29:02;6.63;;;2.47;;
52888;SDS011;41413;52.770;6.892;2022-12-07T17:31:30;5.10;;;3.97;;
52888;SDS011;41413;52.770;6.892;2022-12-07T17:33:58;4.20;;;3.80;;
52888;SDS011;41413;52.770;6.892;2022-12-07T17:36:27;5.72;;;2.72;;
52888;SDS011;41413;52.770;6.892;2022-12-07T17:38:55;12.40;;;9.85;;
52888;SDS011;41413;52.770;6.892;2022-12-07T17:41:23;7.13;;;4.35;;
52888;SDS011;41413;52.770;6.892;2022-12-07T17:44:14;6.13;;;5.53;;
52888;SDS011;41413;52.770;6.892;2022-12-07T17:46:43;4.82;;;2.97;;
52888;SDS011;41413;52.770;6.892;2022-12-07T17:49:10;5.88;;;3.10;;
52888;SDS011;41413;52.770;6.892;2022-12-07T17:51:37;10.18;;;5.13;;
52888;SDS011;41413;52.770;6.892;2022-12-07T17:54:23;7.50;;;4.90;;
52888;SDS011;41413;52.770;6.892;2022-12-07T17:56:49;6.78;;;4.15;;
52888;SDS011;41413;52.770;6.892;2022-12-07T17:59:16;7.85;;;4.05;;
52888;SDS011;41413;52.770;6.892;2022-12-07T18:01:43;4.88;;;3.35;;
52888;SDS011;41413;52.770;6.892;2022-12-07T18:04:11;3.33;;;2.90;;
52888;SDS011;41413;52.770;6.892;2022-12-07T18:06:38;4.60;;;3.80;;